Christiansburg, Virginia
Current Conditions -  °F | °C
As of 8:35 AM on Friday 19 Dec 2014 (Local Time) from KBCB Reporting Station
Clear Clear  
Wind Chill: 23°   Ceiling: Unl
Heat Index: 29°   Visibility: 10mi
Dew Point: 22°   Wind: 6mph
Humidity: 74%   Direction: 280°W
Pressure: 30.17"   Gusts: NA
Location:  37.13°N, 80.41°W
Report Text: KBCB 191335Z AUTO 28005KT 10SM CLR M02/M06 A3017 RMK AO2 T10161057
Loading
Personal Weather Stations






























Interactive Weather Map New forecast layout! Learn more

10-Day Weather Forecast

Advertisements
Track Severe Weather on mobile